Millersburg, OH

3:13 AM EDT on April 28, 2015 (GMT -0400)
Cherry Ridge | | Change Station
CLOSE
Current Station
Personal Weather Station
Location: Sugarcreek, OH
Elevation: 1168 ft
Nearby Weather Stations

Elev 1168 ft 40.51 °N, 81.66 °W | Updated 13 minutes ago

Mostly Cloudy
Mostly Cloudy
38.2 °F
Feels Like 38 °F
N
1.0
Wind Variable Wind from NW
Gusts 3.0 mph

Today
High -- | Low -- °F
--% Chance of Precip.
Yesterday
High -- | Low -- °F
Precip. -- in
6:30 AM 8:19 PM
Waxing Gibbous, 71% visible
Pressure 30.09 in
Visibility 10.0 miles
Clouds Few 5500 ft
Windchill 38 °F
Dew Point 35 °F
Humidity 88%
Rainfall 0.00 in
Snow Depth Not available.
UV 0.0 out of 12
Pollen 9.60 out of 12
Air Quality Not available.
Flu Activity Regional
METAR KBJJ 280556Z AUTO 33005KT 10SM FEW055 01/M01 A3006 RMK AO2 SLP187 T00111006 10061 20011 58000 TSNO

More Conditions Fewer Conditions

Pressure 30.09 in
Visibility 10.0 miles
Clouds Few 5500 ft
Windchill 38 °F
Dew Point 35 °F
Humidity 88%
Rainfall 0.00 in
Snow Depth Not available.
UV 0.0 out of 12
Pollen 9.60 out of 12
Air Quality Not available.
Flu Activity Regional
METAR KBJJ 280556Z AUTO 33005KT 10SM FEW055 01/M01 A3006 RMK AO2 SLP187 T00111006 10061 20011 58000 TSNO

More Conditions Fewer Conditions

10-Day Weather Forecast

Almanac

Astronomy

Apr. 28, 2015 Rise Set
Actual Time
Civil Twilight
Nautical Twilight
Astronomical Twilight
Moon
Length of Visible Light
Length of Day
Tomorrow will be .
, % of the Moon is Illuminated

Today's Extremes

State Highs State Lows

Community

WunderPhotos

Upload Photos

1,817,592 photos uploaded!

WunderBlogs® & News

Nearby

Air Quality

  Air Quality AQ Index Pollutant
Not available.

Snow Depth

Station Depth Elevation

Earthquake Activity

City Distance Mag. Time & Date
Minimum magnitude displayed is 2.5.

Coastal Water Temperatures

Place Temperature

Stations

Nearby Weather Stations

Station Location Temp. Windchill Dew Point Humidity Wind Precip. Elev Updated Type